createdAt,value
2018-12-21T00:00:43.892Z,9.40
2018-12-21T00:02:15.573Z,8.80
2018-12-21T00:03:47.060Z,8.60
2018-12-21T00:05:18.629Z,9.30
2018-12-21T00:06:50.208Z,8.40
2018-12-21T00:08:21.834Z,9.00
2018-12-21T00:09:53.366Z,9.40
2018-12-21T00:11:24.945Z,9.30
2018-12-21T00:12:56.524Z,10.10
2018-12-21T00:14:28.101Z,10.00
2018-12-21T00:15:59.680Z,10.50
2018-12-21T00:17:34.667Z,10.30
2018-12-21T00:19:02.840Z,10.10
2018-12-21T00:20:34.519Z,10.10
2018-12-21T00:22:05.997Z,9.70
2018-12-21T00:23:37.575Z,10.40
2018-12-21T00:25:09.153Z,10.40
2018-12-21T00:26:40.733Z,10.80
2018-12-21T00:28:12.439Z,10.30
2018-12-21T00:29:43.891Z,10.00
2018-12-21T00:31:15.470Z,9.70
2018-12-21T00:32:47.049Z,9.70
2018-12-21T00:34:18.627Z,10.20
2018-12-21T00:35:50.209Z,9.30
2018-12-21T00:37:21.785Z,10.20
2018-12-21T00:38:53.467Z,10.70
2018-12-21T00:40:24.942Z,10.10
2018-12-21T00:41:56.522Z,9.90
2018-12-21T00:43:28.103Z,10.60
2018-12-21T00:44:59.685Z,9.30
2018-12-21T00:46:31.256Z,10.20
2018-12-21T00:48:02.835Z,10.30
2018-12-21T00:49:34.413Z,10.80
2018-12-21T00:51:05.995Z,11.00
2018-12-21T00:52:37.572Z,10.40
2018-12-21T00:54:09.151Z,13.20
2018-12-21T00:55:40.730Z,12.20
2018-12-21T00:57:12.407Z,12.20
2018-12-21T00:58:43.887Z,12.30
2018-12-21T01:00:15.494Z,12.50
2018-12-21T01:01:47.048Z,11.40
2018-12-21T01:03:18.622Z,11.50
2018-12-21T01:04:50.200Z,11.80
2018-12-21T01:06:21.778Z,11.10
2018-12-21T01:07:53.357Z,11.90
2018-12-21T01:09:24.935Z,11.40
2018-12-21T01:10:56.514Z,11.80
2018-12-21T01:12:28.093Z,12.30
2018-12-21T01:13:59.671Z,11.30
2018-12-21T01:15:31.348Z,12.10
2018-12-21T01:17:02.828Z,12.00
2018-12-21T01:18:34.406Z,13.60
2018-12-21T01:20:05.983Z,12.90
2018-12-21T01:21:38.840Z,14.20
2018-12-21T01:23:09.140Z,13.20
2018-12-21T01:24:40.718Z,12.20
2018-12-21T01:26:12.299Z,12.40
2018-12-21T01:27:43.878Z,13.60
2018-12-21T01:29:15.455Z,12.70
2018-12-21T01:30:47.037Z,12.80
2018-12-21T01:32:18.709Z,12.90
2018-12-21T01:33:50.293Z,13.20
2018-12-21T01:35:21.771Z,14.10
2018-12-21T01:36:53.349Z,14.40
2018-12-21T01:38:24.927Z,13.90
2018-12-21T01:39:56.507Z,14.60
2018-12-21T01:41:28.084Z,14.20
2018-12-21T01:42:59.662Z,13.60
2018-12-21T01:44:31.241Z,14.20
2018-12-21T01:46:02.821Z,14.50
2018-12-21T01:47:34.404Z,13.50
2018-12-21T01:49:05.989Z,15.20
2018-12-21T01:50:37.556Z,15.70
2018-12-21T01:52:09.234Z,16.60
2018-12-21T01:53:40.714Z,15.10
2018-12-21T01:55:12.296Z,18.00
2018-12-21T01:56:43.869Z,17.70
2018-12-21T01:58:15.447Z,17.50
2018-12-21T01:59:47.027Z,18.20
2018-12-21T02:01:18.605Z,18.60
2018-12-21T02:02:50.182Z,18.00
2018-12-21T02:04:21.763Z,17.90
2018-12-21T02:05:53.339Z,17.80
2018-12-21T02:07:24.917Z,19.40
2018-12-21T02:08:56.495Z,18.80
2018-12-21T02:10:28.175Z,18.50
2018-12-21T02:11:59.652Z,18.80
2018-12-21T02:13:31.229Z,18.00
2018-12-21T02:15:02.808Z,17.50
2018-12-21T02:16:34.385Z,17.80
2018-12-21T02:18:06.057Z,17.90
2018-12-21T02:19:37.541Z,18.10
2018-12-21T02:21:09.121Z,17.90
2018-12-21T02:22:40.810Z,17.30
2018-12-21T02:24:12.276Z,18.50
2018-12-21T02:25:43.855Z,17.40
2018-12-21T02:27:15.503Z,16.70
2018-12-21T02:28:47.681Z,17.70
2018-12-21T02:30:18.661Z,18.40
2018-12-21T02:31:50.237Z,17.80
2018-12-21T02:33:21.744Z,17.70
2018-12-21T02:34:53.323Z,17.40
2018-12-21T02:36:24.900Z,18.10
2018-12-21T02:37:56.478Z,17.60
2018-12-21T02:39:28.058Z,17.50
2018-12-21T02:40:59.639Z,18.90
2018-12-21T02:42:31.215Z,18.30
2018-12-21T02:44:02.793Z,18.00
2018-12-21T02:45:34.370Z,18.40
2018-12-21T02:47:06.048Z,18.40
2018-12-21T02:48:37.524Z,18.70
2018-12-21T02:50:09.102Z,18.40
2018-12-21T02:51:40.682Z,18.00
2018-12-21T02:53:12.261Z,19.40
2018-12-21T02:54:43.838Z,18.50
2018-12-21T02:56:15.416Z,19.30
2018-12-21T02:57:46.994Z,20.50
2018-12-21T02:59:18.572Z,20.00
2018-12-21T03:00:50.152Z,19.80
2018-12-21T03:02:21.730Z,17.90
2018-12-21T03:03:53.309Z,19.50
2018-12-21T03:05:24.987Z,19.00
2018-12-21T03:06:56.463Z,19.60
2018-12-21T03:08:28.042Z,19.60
2018-12-21T03:09:59.620Z,19.30
2018-12-21T03:11:31.268Z,19.90
2018-12-21T03:13:02.848Z,21.20
2018-12-21T03:14:34.517Z,22.00
2018-12-21T03:16:06.001Z,21.70
2018-12-21T03:17:37.580Z,20.60
2018-12-21T03:19:09.157Z,18.20
2018-12-21T03:20:40.735Z,16.90
2018-12-21T03:22:14.939Z,14.50
2018-12-21T03:23:43.922Z,15.30
2018-12-21T03:25:15.401Z,14.90
2018-12-21T03:26:46.978Z,15.30
2018-12-21T03:28:18.556Z,15.90
2018-12-21T03:29:50.135Z,16.60
2018-12-21T03:31:21.713Z,14.40
2018-12-21T03:32:53.292Z,12.70
2018-12-21T03:34:24.877Z,13.30
2018-12-21T03:35:56.448Z,11.00
2018-12-21T03:37:28.029Z,12.30
2018-12-21T03:38:59.602Z,10.60
2018-12-21T03:40:31.181Z,10.80
2018-12-21T03:42:02.858Z,9.50
2018-12-21T03:43:34.337Z,9.60
2018-12-21T03:45:05.918Z,9.70
2018-12-21T03:46:37.492Z,8.50
2018-12-21T03:48:09.071Z,8.00
2018-12-21T03:49:40.649Z,8.40
2018-12-21T03:51:12.225Z,7.80
2018-12-21T03:52:43.804Z,5.20
2018-12-21T03:54:15.382Z,5.90
2018-12-21T03:55:46.960Z,6.40
2018-12-21T03:57:18.538Z,7.70
2018-12-21T03:58:50.115Z,8.00
2018-12-21T04:00:21.795Z,7.30
2018-12-21T04:01:53.273Z,6.70
2018-12-21T04:03:24.850Z,7.90
2018-12-21T04:04:56.427Z,6.90
2018-12-21T04:06:28.005Z,8.30
2018-12-21T04:07:59.591Z,6.50
2018-12-21T04:09:31.164Z,6.40
2018-12-21T04:11:02.741Z,6.80
2018-12-21T04:12:34.318Z,6.60
2018-12-21T04:14:05.898Z,6.60
2018-12-21T04:15:37.475Z,5.60
2018-12-21T04:17:09.055Z,10.20
2018-12-21T04:18:40.730Z,11.90
2018-12-21T04:20:12.209Z,11.30
2018-12-21T04:21:43.788Z,10.90
2018-12-21T04:23:15.364Z,11.30
2018-12-21T04:24:46.944Z,11.70
2018-12-21T04:26:18.521Z,7.70
2018-12-21T04:27:50.098Z,7.50
2018-12-21T04:29:21.675Z,5.90
2018-12-21T04:30:53.254Z,4.10
2018-12-21T04:32:24.831Z,4.40
2018-12-21T04:33:56.409Z,4.30
2018-12-21T04:35:27.985Z,4.00
2018-12-21T04:36:59.745Z,4.50
2018-12-21T04:38:31.139Z,5.10
2018-12-21T04:40:02.717Z,4.20
2018-12-21T04:41:34.294Z,4.40
2018-12-21T04:43:05.871Z,4.30
2018-12-21T04:44:37.447Z,4.40
2018-12-21T04:46:09.025Z,4.00
2018-12-21T04:47:40.603Z,4.40
2018-12-21T04:49:12.181Z,4.60
2018-12-21T04:50:43.757Z,4.10
2018-12-21T04:52:15.334Z,4.40
2018-12-21T04:53:46.912Z,4.90
2018-12-21T04:55:18.602Z,4.60
2018-12-21T04:56:50.068Z,4.40
2018-12-21T04:58:21.643Z,4.30
2018-12-21T04:59:53.222Z,5.00
2018-12-21T05:01:24.797Z,4.30
2018-12-21T05:02:56.375Z,4.20
2018-12-21T05:04:27.953Z,4.80
2018-12-21T05:05:59.530Z,5.00
2018-12-21T05:07:31.109Z,4.90
2018-12-21T05:09:02.695Z,5.60
2018-12-21T05:10:34.263Z,4.80
2018-12-21T05:12:05.842Z,5.10
2018-12-21T05:13:37.518Z,4.90
2018-12-21T05:15:08.996Z,4.80
2018-12-21T05:16:40.571Z,4.60
2018-12-21T05:18:12.148Z,4.40
2018-12-21T05:19:43.726Z,5.10
2018-12-21T05:21:15.303Z,5.10
2018-12-21T05:22:52.196Z,4.70
2018-12-21T05:24:18.456Z,4.50
2018-12-21T05:25:50.034Z,4.40
2018-12-21T05:27:21.611Z,4.50
2018-12-21T05:28:53.189Z,4.80
2018-12-21T05:30:24.765Z,4.60
2018-12-21T05:31:57.094Z,4.90
2018-12-21T05:33:27.933Z,4.40
2018-12-21T05:34:59.496Z,4.40
2018-12-21T05:36:31.073Z,4.90
2018-12-21T05:38:02.650Z,5.00
2018-12-21T05:39:34.228Z,4.10
2018-12-21T05:41:05.804Z,4.70
2018-12-21T05:42:37.382Z,4.70
2018-12-21T05:44:08.958Z,4.90
2018-12-21T05:45:40.535Z,4.00
2018-12-21T05:47:12.113Z,4.70
2018-12-21T05:48:43.689Z,4.70
2018-12-21T05:50:15.368Z,4.40
2018-12-21T05:51:46.844Z,5.00
2018-12-21T05:53:18.420Z,4.80
2018-12-21T05:54:49.997Z,5.20
2018-12-21T05:56:21.574Z,5.70
2018-12-21T05:57:53.151Z,5.10
2018-12-21T05:59:24.727Z,5.20
2018-12-21T06:00:56.304Z,5.10
2018-12-21T06:02:27.880Z,6.20
2018-12-21T06:03:59.459Z,5.30
2018-12-21T06:05:31.035Z,5.20
2018-12-21T06:07:02.612Z,5.70
2018-12-21T06:08:34.291Z,5.10
2018-12-21T06:10:05.762Z,5.40
2018-12-21T06:11:37.338Z,5.50
2018-12-21T06:13:08.995Z,5.60
2018-12-21T06:14:40.492Z,5.20
2018-12-21T06:16:12.068Z,4.80
2018-12-21T06:17:43.645Z,5.70
2018-12-21T06:19:15.224Z,5.80
2018-12-21T06:20:46.799Z,5.60
2018-12-21T06:22:18.376Z,5.90
2018-12-21T06:23:49.951Z,5.50
2018-12-21T06:25:21.531Z,5.50
2018-12-21T06:26:53.213Z,5.10
2018-12-21T06:28:24.683Z,6.00
2018-12-21T06:29:56.259Z,5.20
2018-12-21T06:31:27.836Z,5.20
2018-12-21T06:32:59.412Z,5.50
2018-12-21T06:34:30.989Z,5.40
2018-12-21T06:36:02.565Z,5.50
2018-12-21T06:37:34.142Z,4.80
2018-12-21T06:39:05.717Z,5.20
2018-12-21T06:40:37.297Z,5.30
2018-12-21T06:42:08.871Z,5.80
2018-12-21T06:43:40.449Z,5.80
2018-12-21T06:45:12.122Z,5.00
2018-12-21T06:46:43.598Z,5.40
2018-12-21T06:48:15.174Z,5.20
2018-12-21T06:49:46.751Z,6.10
2018-12-21T06:51:18.329Z,5.30
2018-12-21T06:52:49.905Z,5.10
2018-12-21T06:54:21.480Z,5.80
2018-12-21T06:55:53.058Z,5.30
2018-12-21T06:57:24.634Z,5.40
2018-12-21T06:58:56.211Z,5.30
2018-12-21T07:00:27.787Z,5.70
2018-12-21T07:01:59.362Z,5.40
2018-12-21T07:03:31.039Z,5.10
2018-12-21T07:05:02.515Z,5.20
2018-12-21T07:06:34.093Z,5.00
2018-12-21T07:08:05.668Z,5.70
2018-12-21T07:09:37.246Z,5.80
2018-12-21T07:11:08.822Z,5.50
2018-12-21T07:12:40.426Z,6.90
2018-12-21T07:14:11.972Z,6.40
2018-12-21T07:15:43.548Z,6.70
2018-12-21T07:17:15.125Z,8.40
2018-12-21T07:18:46.701Z,9.20
2018-12-21T07:20:18.276Z,13.20
2018-12-21T07:21:49.955Z,12.70
2018-12-21T07:23:26.990Z,12.80
2018-12-21T07:24:53.006Z,13.10
2018-12-21T07:26:24.579Z,12.50
2018-12-21T07:27:56.157Z,10.40
2018-12-21T07:29:27.733Z,7.80
2018-12-21T07:30:59.307Z,5.10
2018-12-21T07:32:30.890Z,4.50
2018-12-21T07:34:02.475Z,3.20
2018-12-21T07:35:34.034Z,2.10
2018-12-21T07:37:05.610Z,2.00
2018-12-21T07:38:37.319Z,1.40
2018-12-21T07:40:08.861Z,1.60
2018-12-21T07:41:40.339Z,1.10
2018-12-21T07:43:11.911Z,1.10
2018-12-21T07:44:43.504Z,1.10
2018-12-21T07:46:15.062Z,0.90
2018-12-21T07:47:46.643Z,0.90
2018-12-21T07:49:18.211Z,0.90
2018-12-21T07:50:49.787Z,0.80
2018-12-21T07:52:21.363Z,0.70
2018-12-21T07:53:52.937Z,0.80
2018-12-21T07:55:24.513Z,0.70
2018-12-21T07:56:56.087Z,0.70
2018-12-21T07:58:27.761Z,0.60
2018-12-21T07:59:59.237Z,0.60
2018-12-21T08:01:30.814Z,0.50
2018-12-21T08:03:02.386Z,0.60
2018-12-21T08:04:33.960Z,0.60
2018-12-21T08:06:05.538Z,0.50
2018-12-21T08:07:37.113Z,0.60
2018-12-21T08:09:08.684Z,0.90
2018-12-21T08:10:40.258Z,0.60
2018-12-21T08:12:11.837Z,0.60
2018-12-21T08:13:43.409Z,0.60
2018-12-21T08:15:15.014Z,0.60
2018-12-21T08:16:46.668Z,0.80
2018-12-21T08:18:18.132Z,0.70
2018-12-21T08:19:49.714Z,0.70
2018-12-21T08:21:21.283Z,0.90
2018-12-21T08:22:52.857Z,0.80
2018-12-21T08:24:24.432Z,0.70
2018-12-21T08:25:56.007Z,0.70
2018-12-21T08:27:27.582Z,0.70
2018-12-21T08:28:59.156Z,0.70
2018-12-21T08:30:32.970Z,0.80
2018-12-21T08:32:02.305Z,0.70
2018-12-21T08:33:33.880Z,0.70
2018-12-21T08:35:05.555Z,0.70
2018-12-21T08:36:37.033Z,0.80
2018-12-21T08:38:08.605Z,0.70
2018-12-21T08:39:40.202Z,0.80
2018-12-21T08:41:11.754Z,0.80
2018-12-21T08:42:43.330Z,0.80
2018-12-21T08:44:14.904Z,0.90
2018-12-21T08:45:46.479Z,0.90
2018-12-21T08:47:18.053Z,0.80
2018-12-21T08:48:49.653Z,0.80
2018-12-21T08:50:21.212Z,0.80
2018-12-21T08:51:52.779Z,1.00
2018-12-21T08:53:24.480Z,1.10
2018-12-21T08:54:56.004Z,1.00
2018-12-21T08:56:27.513Z,0.90
2018-12-21T08:57:59.085Z,0.80
2018-12-21T08:59:30.656Z,0.80
2018-12-21T09:01:02.230Z,0.80
2018-12-21T09:02:33.805Z,0.70
2018-12-21T09:04:05.381Z,0.60
2018-12-21T09:05:36.958Z,0.70
2018-12-21T09:07:08.532Z,0.70
2018-12-21T09:08:40.107Z,0.70
2018-12-21T09:10:11.727Z,0.70
2018-12-21T09:11:43.357Z,0.70
2018-12-21T09:13:14.847Z,0.80
2018-12-21T09:14:46.408Z,0.80
2018-12-21T09:16:17.984Z,0.70
2018-12-21T09:17:49.590Z,0.90
2018-12-21T09:19:21.134Z,0.70
2018-12-21T09:20:52.759Z,0.90
2018-12-21T09:22:24.320Z,1.00
2018-12-21T09:24:01.105Z,0.90
2018-12-21T09:25:27.437Z,1.00
2018-12-21T09:26:59.047Z,1.00
2018-12-21T09:28:30.638Z,1.10
2018-12-21T09:30:02.261Z,1.20
2018-12-21T09:31:33.741Z,1.40
2018-12-21T09:33:05.312Z,1.30
2018-12-21T09:34:36.891Z,1.30
2018-12-21T09:36:08.462Z,1.20
2018-12-21T09:37:40.042Z,1.10
2018-12-21T09:39:11.715Z,1.10
2018-12-21T09:40:43.187Z,1.30
2018-12-21T09:42:14.761Z,1.20
2018-12-21T09:43:46.366Z,1.20
2018-12-21T09:45:17.917Z,1.20
2018-12-21T09:46:49.483Z,1.20
2018-12-21T09:48:21.159Z,1.00
2018-12-21T09:49:52.634Z,1.30
2018-12-21T09:51:24.228Z,1.10
2018-12-21T09:52:55.883Z,1.00
2018-12-21T09:54:27.357Z,1.30
2018-12-21T09:55:58.932Z,1.10
2018-12-21T09:57:30.507Z,1.20
2018-12-21T09:59:02.121Z,1.00
2018-12-21T10:00:33.714Z,1.20
2018-12-21T10:02:05.232Z,1.20
2018-12-21T10:03:36.807Z,1.30
2018-12-21T10:05:08.379Z,1.30
2018-12-21T10:06:40.088Z,1.40
2018-12-21T10:08:11.603Z,1.30
2018-12-21T10:09:43.105Z,1.40
2018-12-21T10:11:14.758Z,1.20
2018-12-21T10:12:46.324Z,1.30
2018-12-21T10:14:17.931Z,1.50
2018-12-21T10:15:49.476Z,1.40
2018-12-21T10:17:21.416Z,1.30
2018-12-21T10:18:52.625Z,1.30
2018-12-21T10:20:24.215Z,1.30
2018-12-21T10:21:55.774Z,1.30
2018-12-21T10:23:27.351Z,1.50
2018-12-21T10:24:58.971Z,1.40
2018-12-21T10:26:30.501Z,1.30
2018-12-21T10:28:02.087Z,1.40
2018-12-21T10:29:33.754Z,1.20
2018-12-21T10:31:05.226Z,1.80
2018-12-21T10:32:36.832Z,1.60
2018-12-21T10:34:08.396Z,1.60
2018-12-21T10:35:40.019Z,2.30
2018-12-21T10:37:11.457Z,2.60
2018-12-21T10:38:43.168Z,3.20
2018-12-21T10:40:14.678Z,2.90
2018-12-21T10:41:46.252Z,3.70
2018-12-21T10:43:18.098Z,3.10
2018-12-21T10:44:49.341Z,3.50
2018-12-21T10:46:20.908Z,2.90
2018-12-21T10:47:52.553Z,2.40
2018-12-21T10:49:24.320Z,2.60
2018-12-21T10:50:55.848Z,2.70
2018-12-21T10:52:27.280Z,2.20
2018-12-21T10:53:58.854Z,2.60
2018-12-21T10:55:30.408Z,2.30
2018-12-21T10:57:01.992Z,2.50
2018-12-21T10:58:33.525Z,2.10
2018-12-21T11:00:05.131Z,1.90
2018-12-21T11:01:36.761Z,2.30
2018-12-21T11:03:08.515Z,2.70
2018-12-21T11:04:40.689Z,2.70
2018-12-21T11:06:11.471Z,4.20
2018-12-21T11:07:43.062Z,5.00
2018-12-21T11:09:14.605Z,4.90
2018-12-21T11:10:46.342Z,5.70
2018-12-21T11:12:17.773Z,5.80
2018-12-21T11:16:52.513Z,7.20
2018-12-21T11:18:23.989Z,6.10
2018-12-21T11:19:55.560Z,5.50
2018-12-21T11:22:58.716Z,6.10
2018-12-21T11:24:35.368Z,5.90
2018-12-21T11:26:01.862Z,6.40
2018-12-21T11:27:33.440Z,6.00
2018-12-21T11:29:05.084Z,5.90
2018-12-21T11:30:36.658Z,6.60
2018-12-21T11:32:08.196Z,6.00
2018-12-21T11:33:39.741Z,5.00
2018-12-21T11:35:11.417Z,5.10
2018-12-21T11:36:42.893Z,5.40
2018-12-21T11:38:14.470Z,5.40
2018-12-21T11:39:46.044Z,5.50
2018-12-21T11:41:17.619Z,5.70
2018-12-21T11:42:49.234Z,4.60
2018-12-21T11:44:20.781Z,5.00
2018-12-21T11:47:23.955Z,4.40
2018-12-21T11:48:55.880Z,4.80
2018-12-21T11:50:27.163Z,3.90
2018-12-21T11:51:58.726Z,4.00
2018-12-21T11:53:30.402Z,4.50
2018-12-21T11:56:33.420Z,4.20
2018-12-21T11:58:05.276Z,4.60
2018-12-21T11:59:44.701Z,4.80
2018-12-21T12:01:08.346Z,5.00
2018-12-21T12:02:39.703Z,4.90
2018-12-21T12:07:14.504Z,5.10
2018-12-21T12:08:46.127Z,4.50
2018-12-21T12:11:49.478Z,4.20
2018-12-21T12:13:20.841Z,4.40
2018-12-21T12:14:52.692Z,3.90
2018-12-21T12:16:24.400Z,5.10
2018-12-21T12:17:55.846Z,5.10
2018-12-21T12:19:27.121Z,5.70
2018-12-21T12:20:58.959Z,6.10
2018-12-21T12:22:30.208Z,6.90
2018-12-21T12:24:02.057Z,6.60
2018-12-21T12:25:33.433Z,6.10
2018-12-21T12:27:05.014Z,6.40
2018-12-21T12:28:37.060Z,5.60
2018-12-21T12:30:08.170Z,4.80
2018-12-21T12:31:39.953Z,4.30
2018-12-21T12:33:11.847Z,5.50
2018-12-21T12:34:43.411Z,4.60
2018-12-21T12:36:15.117Z,5.40
2018-12-21T12:37:46.064Z,5.60
2018-12-21T12:39:17.574Z,4.70
2018-12-21T12:40:49.234Z,4.30
2018-12-21T12:42:20.854Z,4.10
2018-12-21T12:43:52.309Z,3.90
2018-12-21T12:45:23.927Z,3.70
2018-12-21T12:46:55.977Z,3.90
2018-12-21T12:48:27.047Z,3.80
2018-12-21T12:51:31.054Z,4.40
2018-12-21T12:53:01.845Z,3.40
2018-12-21T12:54:33.366Z,3.50
2018-12-21T12:56:05.398Z,3.20
2018-12-21T12:57:36.525Z,3.40
2018-12-21T12:59:08.461Z,3.10
2018-12-21T13:00:39.820Z,3.90
2018-12-21T13:02:11.612Z,3.80
2018-12-21T13:03:42.854Z,4.00
2018-12-21T13:05:14.497Z,3.50
2018-12-21T13:06:46.137Z,3.60
2018-12-21T13:08:17.592Z,3.50
2018-12-21T13:09:49.562Z,4.00
2018-12-21T13:11:20.932Z,3.90
2018-12-21T13:12:52.340Z,3.40
2018-12-21T13:14:23.912Z,3.40
2018-12-21T13:15:55.708Z,3.30
2018-12-21T13:17:27.074Z,3.20
2018-12-21T13:18:58.667Z,3.50
2018-12-21T13:22:01.826Z,3.30
2018-12-21T13:23:33.681Z,3.10
2018-12-21T13:25:11.366Z,2.90
2018-12-21T13:28:08.218Z,3.60
2018-12-21T13:29:41.028Z,3.70
2018-12-21T13:31:12.347Z,3.00
2018-12-21T13:32:42.894Z,3.10
2018-12-21T13:34:14.442Z,2.90
2018-12-21T13:35:46.538Z,3.00
2018-12-21T13:37:17.950Z,3.30
2018-12-21T13:38:49.271Z,3.50
2018-12-21T13:40:20.959Z,3.60
2018-12-21T13:41:53.001Z,3.40
2018-12-21T13:43:23.935Z,4.00
2018-12-21T13:44:55.617Z,3.60
2018-12-21T13:46:27.468Z,3.80
2018-12-21T13:47:58.664Z,4.00
2018-12-21T13:49:30.314Z,4.10
2018-12-21T13:51:02.240Z,3.90
2018-12-21T13:52:33.407Z,3.50
2018-12-21T13:54:05.501Z,3.70
2018-12-21T13:55:37.392Z,4.20
2018-12-21T13:57:08.208Z,4.70
2018-12-21T13:58:39.755Z,4.50
2018-12-21T14:00:11.497Z,5.50
2018-12-21T14:01:42.905Z,5.10
2018-12-21T14:03:14.480Z,4.90
2018-12-21T14:04:46.686Z,4.90
2018-12-21T14:07:49.748Z,5.10
2018-12-21T14:09:21.011Z,5.70
2018-12-21T14:10:52.392Z,5.00
2018-12-21T14:12:24.175Z,4.10
2018-12-21T14:13:55.558Z,4.90
2018-12-21T14:15:27.138Z,4.10
2018-12-21T14:16:58.748Z,4.70
2018-12-21T14:18:30.303Z,4.60
2018-12-21T14:20:01.889Z,5.10
2018-12-21T14:21:33.471Z,4.70
2018-12-21T14:23:05.154Z,5.20
2018-12-21T14:24:36.840Z,5.10
2018-12-21T14:26:08.220Z,5.40
2018-12-21T14:27:39.809Z,5.50
2018-12-21T14:29:11.614Z,6.40
2018-12-21T14:30:42.972Z,6.50
2018-12-21T14:32:14.556Z,6.60
2018-12-21T14:33:46.145Z,6.10
2018-12-21T14:35:17.725Z,5.80
2018-12-21T14:36:49.308Z,6.20
2018-12-21T14:38:20.900Z,6.00
2018-12-21T14:39:52.512Z,5.20
2018-12-21T14:41:25.463Z,6.30
2018-12-21T14:42:55.648Z,5.40
2018-12-21T14:44:27.228Z,6.00
2018-12-21T14:47:30.413Z,4.80
2018-12-21T14:49:02.012Z,4.30
2018-12-21T14:50:33.567Z,4.30
2018-12-21T14:53:37.087Z,4.70
2018-12-21T14:55:08.597Z,5.10
2018-12-21T14:56:39.956Z,4.40
2018-12-21T14:58:11.515Z,4.70
2018-12-21T14:59:43.170Z,5.00
2018-12-21T15:01:14.653Z,4.80
2018-12-21T15:02:46.462Z,4.60
2018-12-21T15:05:51.462Z,4.40
2018-12-21T15:07:21.018Z,4.70
2018-12-21T15:08:53.058Z,5.20
2018-12-21T15:13:27.442Z,5.00
2018-12-21T15:14:58.900Z,4.80
2018-12-21T15:16:30.514Z,5.30
2018-12-21T15:18:02.093Z,5.40
2018-12-21T15:19:33.751Z,4.90
2018-12-21T15:21:05.234Z,4.70
2018-12-21T15:22:37.189Z,4.60
2018-12-21T15:24:08.408Z,5.00
2018-12-21T15:25:45.984Z,5.30
2018-12-21T15:27:11.878Z,5.40
2018-12-21T15:30:15.259Z,5.40
2018-12-21T15:31:46.325Z,5.10
2018-12-21T15:33:17.905Z,4.90
2018-12-21T15:34:49.498Z,4.80
2018-12-21T15:36:21.081Z,4.80
2018-12-21T15:37:52.764Z,4.90
2018-12-21T15:39:24.547Z,4.60
2018-12-21T15:40:55.842Z,5.20
2018-12-21T15:42:27.923Z,6.00
2018-12-21T15:43:59.001Z,5.10
2018-12-21T15:45:30.593Z,5.30
2018-12-21T15:47:08.949Z,4.80
2018-12-21T15:48:33.962Z,5.60
2018-12-21T15:50:05.343Z,5.30
2018-12-21T15:51:36.928Z,5.20
2018-12-21T15:53:08.518Z,5.60
2018-12-21T15:57:43.573Z,4.80
2018-12-21T15:59:14.858Z,4.80
2018-12-21T16:00:46.444Z,6.50
2018-12-21T16:02:18.080Z,5.30
2018-12-21T16:03:49.651Z,5.10
2018-12-21T16:05:22.156Z,4.90
2018-12-21T16:06:52.852Z,4.90
2018-12-21T16:09:55.969Z,5.40
2018-12-21T16:11:27.562Z,5.10
2018-12-21T16:12:59.445Z,6.00
2018-12-21T16:14:34.646Z,5.40
2018-12-21T16:16:02.492Z,4.90
2018-12-21T16:17:33.911Z,5.10
2018-12-21T16:19:05.516Z,5.00
2018-12-21T16:20:37.086Z,5.40
2018-12-21T16:22:08.673Z,5.40
2018-12-21T16:23:40.264Z,5.10
2018-12-21T16:25:11.972Z,5.00
2018-12-21T16:26:43.640Z,5.40
2018-12-21T16:28:15.025Z,4.90
2018-12-21T16:29:46.620Z,5.00
2018-12-21T16:31:18.205Z,5.00
2018-12-21T16:32:49.795Z,4.90
2018-12-21T16:34:21.682Z,4.80
2018-12-21T16:37:24.654Z,4.00
2018-12-21T16:38:56.461Z,4.30
2018-12-21T16:40:28.255Z,4.40
2018-12-21T16:41:59.652Z,4.20
2018-12-21T16:43:30.932Z,5.20
2018-12-21T16:45:02.546Z,5.70
2018-12-21T16:46:34.118Z,5.00
2018-12-21T16:49:37.810Z,5.00
2018-12-21T16:51:08.881Z,3.90
2018-12-21T16:52:40.670Z,4.00
2018-12-21T16:54:12.071Z,3.40
2018-12-21T16:55:43.853Z,3.40
2018-12-21T16:57:15.238Z,4.20
2018-12-21T16:58:47.140Z,4.10
2018-12-21T17:00:18.461Z,3.90
2018-12-21T17:01:50.315Z,3.80
2018-12-21T17:03:21.601Z,4.20
2018-12-21T17:04:53.194Z,3.90
2018-12-21T17:06:24.803Z,4.60
2018-12-21T17:07:56.675Z,4.50
2018-12-21T17:09:27.959Z,3.50
2018-12-21T17:12:31.762Z,3.80
2018-12-21T17:15:34.319Z,3.80
2018-12-21T17:17:07.412Z,4.50
2018-12-21T17:20:09.390Z,4.20
2018-12-21T17:21:40.672Z,3.90
2018-12-21T17:23:12.356Z,3.90
2018-12-21T17:24:44.048Z,3.60
2018-12-21T17:27:47.118Z,4.20
2018-12-21T17:30:51.323Z,4.20
2018-12-21T17:32:21.883Z,3.90
2018-12-21T17:35:25.153Z,3.50
2018-12-21T17:38:28.649Z,3.80
2018-12-21T17:41:32.209Z,3.40
2018-12-21T17:43:05.915Z,4.20
2018-12-21T17:44:34.475Z,3.90
2018-12-21T17:47:37.745Z,4.30
2018-12-21T17:49:09.531Z,3.70
2018-12-21T17:50:40.833Z,3.90
2018-12-21T17:52:12.397Z,4.30
2018-12-21T17:53:43.981Z,4.20
2018-12-21T17:58:18.739Z,4.20
2018-12-21T17:59:50.325Z,4.00
2018-12-21T18:01:21.915Z,4.00
2018-12-21T18:02:53.800Z,4.00
2018-12-21T18:04:25.084Z,4.10
2018-12-21T18:05:56.971Z,3.80
2018-12-21T18:07:28.257Z,4.30
2018-12-21T18:09:00.145Z,3.70
2018-12-21T18:12:03.013Z,4.00
2018-12-21T18:13:34.599Z,3.70
2018-12-21T18:15:06.708Z,4.20
2018-12-21T18:16:37.773Z,3.90
2018-12-21T18:18:09.560Z,4.70
2018-12-21T18:19:40.944Z,4.10
2018-12-21T18:21:12.530Z,3.80
2018-12-21T18:22:44.421Z,3.30
2018-12-21T18:24:15.802Z,3.50
2018-12-21T18:25:47.596Z,3.60
2018-12-21T18:27:18.874Z,3.50
2018-12-21T18:28:50.460Z,3.50
2018-12-21T18:31:53.835Z,3.40
2018-12-21T18:33:25.219Z,3.40
2018-12-21T18:34:56.806Z,3.10
2018-12-21T18:36:28.595Z,3.20
2018-12-21T18:39:31.663Z,3.60
2018-12-21T18:41:03.148Z,3.40
2018-12-21T18:42:34.734Z,3.20
2018-12-21T18:44:06.320Z,3.80
2018-12-21T18:45:37.905Z,3.80
2018-12-21T18:47:09.801Z,3.90
2018-12-21T18:48:41.280Z,3.40
2018-12-21T18:50:12.663Z,4.20
2018-12-21T18:53:15.834Z,3.70
2018-12-21T18:56:19.311Z,4.20
2018-12-21T18:57:50.590Z,4.10
2018-12-21T19:00:53.861Z,3.70
2018-12-21T19:02:26.074Z,3.60
2018-12-21T19:03:56.989Z,3.30
2018-12-21T19:05:28.518Z,3.20
2018-12-21T19:07:00.251Z,3.80
2018-12-21T19:08:32.212Z,3.40
2018-12-21T19:10:03.986Z,3.50
2018-12-21T19:11:34.859Z,3.50
2018-12-21T19:13:06.443Z,3.40
2018-12-21T19:14:38.028Z,3.30
2018-12-21T19:16:09.612Z,3.50
2018-12-21T19:17:41.663Z,3.50
2018-12-21T19:19:12.879Z,3.70
2018-12-21T19:20:44.362Z,4.10
2018-12-21T19:22:15.995Z,3.40
2018-12-21T19:23:47.529Z,4.30
2018-12-21T19:25:19.112Z,3.70
2018-12-21T19:26:55.677Z,4.00
2018-12-21T19:28:22.482Z,3.60
2018-12-21T19:29:53.860Z,3.50
2018-12-21T19:32:57.028Z,3.30
2018-12-21T19:34:29.335Z,3.80
2018-12-21T19:37:32.500Z,3.40
2018-12-21T19:39:03.458Z,3.40
2018-12-21T19:40:34.939Z,3.80
2018-12-21T19:42:06.523Z,3.30
2018-12-21T19:43:38.309Z,3.70
2018-12-21T19:45:09.690Z,3.80
2018-12-21T19:46:41.271Z,3.80
2018-12-21T19:48:13.378Z,3.30
2018-12-21T19:49:44.488Z,3.70
2018-12-21T19:51:16.028Z,4.30
2018-12-21T19:52:47.602Z,4.30
2018-12-21T19:54:19.185Z,4.80
2018-12-21T19:57:22.451Z,4.40
2018-12-21T19:58:53.933Z,4.90
2018-12-21T20:00:25.516Z,4.60
2018-12-21T20:01:57.618Z,4.00
2018-12-21T20:03:28.679Z,4.40
2018-12-21T20:05:00.327Z,4.60
2018-12-21T20:06:31.846Z,4.80
2018-12-21T20:09:35.010Z,4.90
2018-12-21T20:11:06.592Z,4.70
2018-12-21T20:12:38.174Z,4.90
2018-12-21T20:14:09.755Z,4.70
2018-12-21T20:15:41.743Z,4.90
2018-12-21T20:17:12.919Z,4.40
2018-12-21T20:23:19.247Z,4.60
2018-12-21T20:24:50.830Z,4.60
2018-12-21T20:26:22.413Z,4.60
2018-12-21T20:29:25.575Z,5.40
2018-12-21T20:30:57.464Z,4.50
2018-12-21T20:32:28.739Z,4.50
2018-12-21T20:34:00.323Z,4.20
2018-12-21T20:35:32.454Z,4.50
2018-12-21T20:37:03.792Z,4.60
2018-12-21T20:38:35.069Z,5.10
2018-12-21T20:40:06.650Z,4.50
2018-12-21T20:44:41.395Z,4.70
2018-12-21T20:46:13.148Z,4.90
2018-12-21T20:47:44.556Z,5.30
2018-12-21T20:49:16.185Z,4.80
2018-12-21T20:50:48.022Z,4.80
2018-12-21T20:52:19.606Z,5.20
2018-12-21T20:53:50.883Z,5.20
2018-12-21T20:55:22.465Z,4.90
2018-12-21T20:56:54.044Z,4.80
2018-12-21T20:58:25.626Z,5.20
2018-12-21T20:59:57.208Z,5.10
2018-12-21T21:01:28.787Z,4.90
2018-12-21T21:03:00.369Z,4.60
2018-12-21T21:04:31.956Z,6.10
2018-12-21T21:06:03.732Z,5.50
2018-12-21T21:07:35.111Z,5.60
2018-12-21T21:09:06.792Z,5.20
2018-12-21T21:10:38.272Z,5.60
2018-12-21T21:12:09.854Z,5.50
2018-12-21T21:13:41.434Z,5.90
2018-12-21T21:15:13.017Z,5.40
2018-12-21T21:16:44.595Z,5.40
2018-12-21T21:18:16.175Z,5.70
2018-12-21T21:19:47.756Z,6.10
2018-12-21T21:21:19.337Z,5.60
2018-12-21T21:22:50.917Z,5.90
2018-12-21T21:24:22.499Z,5.60
2018-12-21T21:25:54.080Z,5.20
2018-12-21T21:27:30.345Z,5.10